createdAt,value
2022-11-02T00:01:56.763Z,26.10
2022-11-02T00:04:23.780Z,25.63
2022-11-02T00:06:50.739Z,26.95
2022-11-02T00:09:17.674Z,27.23
2022-11-02T00:11:44.607Z,27.35
2022-11-02T00:14:11.796Z,26.73
2022-11-02T00:16:40.380Z,27.98
2022-11-02T00:19:09.132Z,27.83
2022-11-02T00:21:37.623Z,29.30
2022-11-02T00:24:05.973Z,32.22
2022-11-02T00:26:35.076Z,33.85
2022-11-02T00:29:03.086Z,36.38
2022-11-02T00:31:30.133Z,35.00
2022-11-02T00:33:57.202Z,35.58
2022-11-02T00:36:28.077Z,37.17
2022-11-02T00:38:55.097Z,39.40
2022-11-02T00:41:22.234Z,38.05
2022-11-02T00:43:49.452Z,36.03
2022-11-02T00:46:16.389Z,31.42
2022-11-02T00:48:43.426Z,31.25
2022-11-02T00:51:11.751Z,28.08
2022-11-02T00:53:40.463Z,28.42
2022-11-02T00:56:07.959Z,29.20
2022-11-02T00:58:34.947Z,26.70
2022-11-02T01:01:06.382Z,25.40
2022-11-02T01:03:33.714Z,25.77
2022-11-02T01:06:12.196Z,25.52
2022-11-02T01:08:40.685Z,24.10
2022-11-02T01:11:16.687Z,23.85
2022-11-02T01:13:44.650Z,23.50
2022-11-02T01:16:13.220Z,24.30
2022-11-02T01:18:40.838Z,23.88
2022-11-02T01:21:08.296Z,22.95
2022-11-02T01:23:37.489Z,22.67
2022-11-02T01:26:09.927Z,23.27
2022-11-02T01:28:37.684Z,22.33
2022-11-02T01:31:05.170Z,21.15
2022-11-02T01:33:33.028Z,21.75
2022-11-02T01:36:04.315Z,21.75
2022-11-02T01:38:32.355Z,21.70
2022-11-02T01:40:59.946Z,21.90
2022-11-02T01:43:26.764Z,21.65
2022-11-02T01:46:06.210Z,21.83
2022-11-02T01:48:50.411Z,23.23
2022-11-02T01:51:36.336Z,22.90
2022-11-02T01:54:14.411Z,23.10
2022-11-02T01:56:43.245Z,22.23
2022-11-02T01:59:14.995Z,23.55
2022-11-02T02:01:42.025Z,23.80
2022-11-02T02:04:12.753Z,23.35
2022-11-02T02:06:40.913Z,23.42
2022-11-02T02:09:09.018Z,22.77
2022-11-02T02:11:40.076Z,24.38
2022-11-02T02:14:12.136Z,25.05
2022-11-02T02:16:55.162Z,25.02
2022-11-02T02:19:29.484Z,26.75
2022-11-02T02:22:25.418Z,26.77
2022-11-02T02:24:59.173Z,26.20
2022-11-02T02:28:04.486Z,27.92
2022-11-02T02:30:40.980Z,26.95
2022-11-02T02:33:14.347Z,28.13
2022-11-02T02:35:41.727Z,28.25
2022-11-02T02:38:22.633Z,27.02
2022-11-02T02:41:14.720Z,28.83
2022-11-02T02:43:49.618Z,28.48
2022-11-02T02:46:34.744Z,27.27
2022-11-02T02:49:04.396Z,28.10
2022-11-02T02:51:35.753Z,28.25
2022-11-02T02:54:10.541Z,26.85
2022-11-02T02:56:43.437Z,27.65
2022-11-02T02:59:22.192Z,26.88
2022-11-02T03:01:49.810Z,27.60
2022-11-02T03:04:16.883Z,26.20
2022-11-02T03:06:48.382Z,25.65
2022-11-02T03:09:34.215Z,25.60
2022-11-02T03:12:39.379Z,25.70
2022-11-02T03:15:28.262Z,25.20
2022-11-02T03:18:14.735Z,25.33
2022-11-02T03:20:58.580Z,26.08
2022-11-02T03:23:37.593Z,25.65
2022-11-02T03:26:17.344Z,25.55
2022-11-02T03:29:06.614Z,25.73
2022-11-02T03:31:46.309Z,25.55
2022-11-02T03:34:24.850Z,26.65
2022-11-02T03:37:31.647Z,26.88
2022-11-02T03:40:26.055Z,27.63
2022-11-02T03:42:54.556Z,28.20
2022-11-02T03:45:24.804Z,29.05
2022-11-02T03:47:58.751Z,29.30
2022-11-02T03:50:27.888Z,28.85
2022-11-02T03:53:01.455Z,28.30
2022-11-02T03:55:42.188Z,27.52
2022-11-02T03:58:12.831Z,26.65
2022-11-02T04:00:50.421Z,25.85
2022-11-02T04:03:19.649Z,25.90
2022-11-02T04:05:46.718Z,27.02
2022-11-02T04:08:39.155Z,26.45
2022-11-02T04:11:27.720Z,26.70
2022-11-02T04:14:17.604Z,25.42
2022-11-02T04:16:45.984Z,24.55
2022-11-02T04:19:28.768Z,25.13
2022-11-02T04:22:26.226Z,26.30
2022-11-02T04:25:16.488Z,26.33
2022-11-02T04:27:51.485Z,26.05
2022-11-02T04:30:23.212Z,24.55
2022-11-02T04:33:11.325Z,26.23
2022-11-02T04:35:45.139Z,25.27
2022-11-02T04:38:31.971Z,27.10
2022-11-02T04:41:18.991Z,25.05
2022-11-02T04:43:49.002Z,25.05
2022-11-02T04:46:17.985Z,24.52
2022-11-02T04:48:46.003Z,24.88
2022-11-02T04:51:13.485Z,25.33
2022-11-02T04:53:40.621Z,25.45
2022-11-02T04:56:10.142Z,24.67
2022-11-02T04:58:37.154Z,23.88
2022-11-02T05:01:11.434Z,24.27
2022-11-02T05:03:38.725Z,24.00
2022-11-02T05:06:06.074Z,24.65
2022-11-02T05:08:33.040Z,22.90
2022-11-02T05:11:00.263Z,24.35
2022-11-02T05:13:28.917Z,25.80
2022-11-02T05:15:59.752Z,26.92
2022-11-02T05:18:29.625Z,26.90
2022-11-02T05:21:01.646Z,26.40
2022-11-02T05:23:30.321Z,26.77
2022-11-02T05:26:05.143Z,28.13
2022-11-02T05:28:34.454Z,29.08
2022-11-02T05:31:04.106Z,28.10
2022-11-02T05:33:33.794Z,28.85
2022-11-02T05:36:06.535Z,28.48
2022-11-02T05:38:36.020Z,27.73
2022-11-02T05:41:03.187Z,27.55
2022-11-02T05:43:34.262Z,26.75
2022-11-02T05:46:03.589Z,27.13
2022-11-02T05:48:33.665Z,26.00
2022-11-02T05:51:03.193Z,26.08
2022-11-02T05:53:32.670Z,27.80
2022-11-02T05:56:01.165Z,26.27
2022-11-02T05:58:28.536Z,26.27
2022-11-02T06:00:58.486Z,26.55
2022-11-02T06:03:25.397Z,26.30
2022-11-02T06:06:04.243Z,24.98
2022-11-02T06:08:36.033Z,26.10
2022-11-02T06:11:10.356Z,25.83
2022-11-02T06:13:38.186Z,24.85
2022-11-02T06:16:09.279Z,24.77
2022-11-02T06:18:37.221Z,25.55
2022-11-02T06:21:04.634Z,25.00
2022-11-02T06:23:31.737Z,24.20
2022-11-02T06:26:00.187Z,24.10
2022-11-02T06:28:27.741Z,23.88
2022-11-02T06:30:55.631Z,23.00
2022-11-02T06:33:23.378Z,23.48
2022-11-02T06:35:54.558Z,23.98
2022-11-02T06:38:22.181Z,24.33
2022-11-02T06:41:03.393Z,24.67
2022-11-02T06:43:31.201Z,23.38
2022-11-02T06:45:59.395Z,23.15
2022-11-02T06:48:33.314Z,24.05
2022-11-02T06:51:03.000Z,24.00
2022-11-02T06:53:30.094Z,23.63
2022-11-02T06:55:58.684Z,23.95
2022-11-02T06:58:26.447Z,23.05
2022-11-02T07:01:01.640Z,23.05
2022-11-02T07:03:29.331Z,23.27
2022-11-02T07:05:56.771Z,25.00
2022-11-02T07:08:23.813Z,23.58
2022-11-02T07:10:51.067Z,23.73
2022-11-02T07:13:18.352Z,23.45
2022-11-02T07:15:45.354Z,23.50
2022-11-02T07:18:13.067Z,24.35
2022-11-02T07:20:40.265Z,24.95
2022-11-02T07:23:07.439Z,25.48
2022-11-02T07:25:35.385Z,25.25
2022-11-02T07:28:02.895Z,26.48
2022-11-02T07:30:32.975Z,27.05
2022-11-02T07:33:00.256Z,26.50
2022-11-02T07:35:27.704Z,26.33
2022-11-02T07:37:59.008Z,25.27
2022-11-02T07:40:26.583Z,24.58
2022-11-02T07:42:56.318Z,22.92
2022-11-02T07:45:32.967Z,22.92
2022-11-02T07:48:00.104Z,21.25
2022-11-02T07:50:27.385Z,21.63
2022-11-02T07:52:56.377Z,21.65
2022-11-02T07:55:25.998Z,20.50
2022-11-02T07:57:58.335Z,20.88
2022-11-02T08:00:27.272Z,21.05
2022-11-02T08:02:55.578Z,20.15
2022-11-02T08:05:23.091Z,22.25
2022-11-02T08:08:01.242Z,22.52
2022-11-02T08:10:32.820Z,21.42
2022-11-02T08:13:04.271Z,20.38
2022-11-02T08:15:31.531Z,21.33
2022-11-02T08:18:18.488Z,20.65
2022-11-02T08:20:46.354Z,20.58
2022-11-02T08:23:15.609Z,20.95
2022-11-02T08:25:45.736Z,19.90
2022-11-02T08:28:22.007Z,20.40
2022-11-02T08:30:49.249Z,19.30
2022-11-02T08:33:18.555Z,19.88
2022-11-02T08:35:46.435Z,19.25
2022-11-02T08:38:14.195Z,18.50
2022-11-02T08:40:41.459Z,18.40
2022-11-02T08:43:10.928Z,18.35
2022-11-02T08:48:28.221Z,16.63
2022-11-02T08:50:56.272Z,16.63
2022-11-02T08:53:23.371Z,17.20
2022-11-02T08:55:50.405Z,17.48
2022-11-02T08:58:18.584Z,17.00
2022-11-02T09:00:45.688Z,15.60
2022-11-02T09:03:15.447Z,16.27
2022-11-02T09:05:47.566Z,15.77
2022-11-02T09:08:20.093Z,15.75
2022-11-02T09:10:50.209Z,15.70
2022-11-02T09:13:25.321Z,15.32
2022-11-02T09:15:55.201Z,15.70
2022-11-02T09:18:22.826Z,16.15
2022-11-02T09:20:50.017Z,15.55
2022-11-02T09:23:17.884Z,15.35
2022-11-02T09:25:46.676Z,14.18
2022-11-02T09:28:15.619Z,14.07
2022-11-02T09:30:43.048Z,14.20
2022-11-02T09:33:11.241Z,14.57
2022-11-02T09:35:44.218Z,14.32
2022-11-02T09:38:11.333Z,12.15
2022-11-02T09:40:38.237Z,11.10
2022-11-02T09:43:34.008Z,10.43
2022-11-02T09:46:13.395Z,10.63
2022-11-02T09:48:51.560Z,9.40
2022-11-02T09:51:23.139Z,9.27
2022-11-02T09:54:18.469Z,10.05
2022-11-02T09:56:46.356Z,9.55
2022-11-02T09:59:16.844Z,10.40
2022-11-02T10:01:55.638Z,10.05
2022-11-02T10:04:40.862Z,8.73
2022-11-02T10:07:10.650Z,8.80
2022-11-02T10:10:00.365Z,8.57
2022-11-02T10:12:35.267Z,8.70
2022-11-02T10:15:24.024Z,9.25
2022-11-02T10:17:55.325Z,9.23
2022-11-02T10:20:46.994Z,9.52
2022-11-02T10:23:33.795Z,10.10
2022-11-02T10:26:02.692Z,10.45
2022-11-02T10:28:33.839Z,9.70
2022-11-02T10:31:02.825Z,9.48
2022-11-02T10:33:31.140Z,10.52
2022-11-02T10:36:18.057Z,9.60
2022-11-02T10:39:13.307Z,9.52
2022-11-02T10:41:45.913Z,9.48
2022-11-02T10:44:18.992Z,9.52
2022-11-02T10:47:12.335Z,7.88
2022-11-02T10:49:57.885Z,8.60
2022-11-02T10:52:25.907Z,7.63
2022-11-02T10:54:53.326Z,7.32
2022-11-02T10:57:25.310Z,8.30
2022-11-02T11:00:26.477Z,7.40
2022-11-02T11:03:06.918Z,6.82
2022-11-02T11:05:43.754Z,7.20
2022-11-02T11:08:28.887Z,7.72
2022-11-02T11:11:09.019Z,7.40
2022-11-02T11:16:44.801Z,6.40
2022-11-02T11:22:40.507Z,6.30
2022-11-02T11:25:13.759Z,5.65
2022-11-02T11:27:55.640Z,5.78
2022-11-02T11:33:24.897Z,5.40
2022-11-02T11:35:52.344Z,5.63
2022-11-02T11:38:24.359Z,5.25
2022-11-02T11:40:56.162Z,5.15
2022-11-02T11:43:35.076Z,4.93
2022-11-02T11:46:06.840Z,5.03
2022-11-02T11:48:42.067Z,4.93
2022-11-02T11:51:48.650Z,5.38
2022-11-02T11:54:29.820Z,5.68
2022-11-02T11:57:19.173Z,4.65
2022-11-02T11:59:48.571Z,4.18
2022-11-02T12:02:27.793Z,4.10
2022-11-02T12:05:16.075Z,4.10
2022-11-02T12:07:56.144Z,4.10
2022-11-02T12:11:02.776Z,4.63
2022-11-02T12:13:43.394Z,4.68
2022-11-02T12:16:47.545Z,5.10
2022-11-02T12:19:44.086Z,4.78
2022-11-02T12:22:22.889Z,5.10
2022-11-02T12:25:08.731Z,5.50
2022-11-02T12:27:49.613Z,4.93
2022-11-02T12:30:31.416Z,4.75
2022-11-02T12:33:04.315Z,4.72
2022-11-02T12:36:09.004Z,4.97
2022-11-02T12:38:56.857Z,4.60
2022-11-02T12:41:41.687Z,4.95
2022-11-02T12:44:33.534Z,5.20
2022-11-02T12:47:14.414Z,5.05
2022-11-02T12:49:46.657Z,4.63
2022-11-02T12:52:44.067Z,4.82
2022-11-02T12:55:25.036Z,5.03
2022-11-02T12:57:58.747Z,5.00
2022-11-02T13:00:27.051Z,4.75
2022-11-02T13:03:13.613Z,6.07
2022-11-02T13:05:46.634Z,17.15
2022-11-02T13:08:23.215Z,10.80
2022-11-02T13:11:01.305Z,4.63
2022-11-02T13:13:35.813Z,5.85
2022-11-02T13:16:04.075Z,4.85
2022-11-02T13:18:38.024Z,5.28
2022-11-02T13:21:05.303Z,5.10
2022-11-02T13:23:44.665Z,5.15
2022-11-02T13:26:33.925Z,5.00
2022-11-02T13:29:22.303Z,4.55
2022-11-02T13:31:58.126Z,4.15
2022-11-02T13:34:37.966Z,4.25
2022-11-02T13:37:29.199Z,4.63
2022-11-02T13:40:05.031Z,5.43
2022-11-02T13:42:50.763Z,5.05
2022-11-02T13:45:36.288Z,5.50
2022-11-02T13:48:15.057Z,5.65
2022-11-02T13:50:53.755Z,6.00
2022-11-02T13:53:33.376Z,6.13
2022-11-02T13:56:08.208Z,6.30
2022-11-02T13:58:39.118Z,6.35
2022-11-02T14:01:10.014Z,6.72
2022-11-02T14:03:46.063Z,6.93
2022-11-02T14:06:16.294Z,7.25
2022-11-02T14:09:10.728Z,6.65
2022-11-02T14:11:40.684Z,6.97
2022-11-02T14:14:10.736Z,7.45
2022-11-02T14:16:47.071Z,7.25
2022-11-02T14:19:32.038Z,8.65
2022-11-02T14:21:59.084Z,8.77
2022-11-02T14:24:36.210Z,9.38
2022-11-02T14:27:12.758Z,8.50
2022-11-02T14:29:42.573Z,8.38
2022-11-02T14:32:48.002Z,8.52
2022-11-02T14:35:23.753Z,7.70
2022-11-02T14:37:59.767Z,7.93
2022-11-02T14:40:56.201Z,7.68
2022-11-02T14:44:00.428Z,6.82
2022-11-02T14:46:36.037Z,7.40
2022-11-02T14:49:04.488Z,6.82
2022-11-02T14:51:37.932Z,6.80
2022-11-02T14:54:18.825Z,7.45
2022-11-02T14:56:54.209Z,7.07
2022-11-02T14:59:25.351Z,7.63
2022-11-02T15:02:28.476Z,6.88
2022-11-02T15:04:59.068Z,6.88
2022-11-02T15:07:42.201Z,6.95
2022-11-02T15:10:18.285Z,7.28
2022-11-02T15:12:48.924Z,6.80
2022-11-02T15:15:37.403Z,7.28
2022-11-02T15:18:33.072Z,6.70
2022-11-02T15:21:17.208Z,6.97
2022-11-02T15:23:50.848Z,7.25
2022-11-02T15:26:47.261Z,7.95
2022-11-02T15:29:17.318Z,7.25
2022-11-02T15:31:53.070Z,7.97
2022-11-02T15:34:22.344Z,8.18
2022-11-02T15:36:49.994Z,7.85
2022-11-02T15:39:18.406Z,7.80
2022-11-02T15:42:07.583Z,8.50
2022-11-02T15:44:44.739Z,8.40
2022-11-02T15:47:35.391Z,8.50
2022-11-02T15:50:28.423Z,8.90
2022-11-02T15:56:25.665Z,8.93
2022-11-02T15:59:04.678Z,9.05
2022-11-02T16:01:31.792Z,8.77
2022-11-02T16:04:06.811Z,8.15
2022-11-02T16:06:43.480Z,8.50
2022-11-02T16:09:32.975Z,7.60
2022-11-02T16:12:19.105Z,8.30
2022-11-02T16:14:55.943Z,7.70
2022-11-02T16:17:28.581Z,7.95
2022-11-02T16:20:28.784Z,7.78
2022-11-02T16:23:05.054Z,8.60
2022-11-02T16:25:39.956Z,7.93
2022-11-02T16:28:21.563Z,8.15
2022-11-02T16:31:13.513Z,8.60
2022-11-02T16:33:44.254Z,8.80
2022-11-02T16:36:24.075Z,8.45
2022-11-02T16:39:03.563Z,8.52
2022-11-02T16:41:33.878Z,8.75
2022-11-02T16:44:08.602Z,9.07
2022-11-02T16:46:59.971Z,9.70
2022-11-02T16:49:28.474Z,10.30
2022-11-02T16:52:00.799Z,9.50
2022-11-02T16:54:27.684Z,10.82
2022-11-02T16:56:59.718Z,10.65
2022-11-02T16:59:26.755Z,10.80
2022-11-02T17:02:01.675Z,11.70
2022-11-02T17:04:31.645Z,11.32
2022-11-02T17:07:22.373Z,12.00
2022-11-02T17:09:55.897Z,11.80
2022-11-02T17:12:29.664Z,12.80
2022-11-02T17:14:57.476Z,13.57
2022-11-02T17:17:24.424Z,13.48
2022-11-02T17:20:16.344Z,13.93
2022-11-02T17:22:52.093Z,15.80
2022-11-02T17:25:35.760Z,14.35
2022-11-02T17:28:24.486Z,15.18
2022-11-02T17:30:52.850Z,15.80
2022-11-02T17:33:26.267Z,15.38
2022-11-02T17:35:55.930Z,15.32
2022-11-02T17:38:28.207Z,15.60
2022-11-02T17:40:55.675Z,16.30
2022-11-02T17:43:23.569Z,15.93
2022-11-02T17:45:55.406Z,16.48
2022-11-02T17:48:22.579Z,17.17
2022-11-02T17:50:53.637Z,17.02
2022-11-02T17:53:21.068Z,16.83
2022-11-02T17:55:48.175Z,17.98
2022-11-02T17:58:15.531Z,17.95
2022-11-02T18:00:43.018Z,17.67
2022-11-02T18:03:19.418Z,18.50
2022-11-02T18:05:50.071Z,17.42
2022-11-02T18:08:18.939Z,17.27
2022-11-02T18:10:50.272Z,16.42
2022-11-02T18:13:20.120Z,16.98
2022-11-02T18:15:47.086Z,16.48
2022-11-02T18:18:14.114Z,17.35
2022-11-02T18:20:42.163Z,16.73
2022-11-02T18:23:17.124Z,16.30
2022-11-02T18:25:44.168Z,16.92
2022-11-02T18:28:11.126Z,16.77
2022-11-02T18:30:43.953Z,17.33
2022-11-02T18:33:13.675Z,18.55
2022-11-02T18:35:42.396Z,20.10
2022-11-02T18:38:09.480Z,18.15
2022-11-02T18:40:36.444Z,19.10
2022-11-02T18:43:03.909Z,19.40
2022-11-02T18:45:31.065Z,20.42
2022-11-02T18:47:58.266Z,20.17
2022-11-02T18:50:26.663Z,19.63
2022-11-02T18:52:53.616Z,20.25
2022-11-02T18:55:20.537Z,20.15
2022-11-02T18:57:50.418Z,20.08
2022-11-02T19:00:17.502Z,20.63
2022-11-02T19:02:44.447Z,20.75
2022-11-02T19:05:31.486Z,20.55
2022-11-02T19:08:20.582Z,20.25
2022-11-02T19:10:48.539Z,20.48
2022-11-02T19:13:15.507Z,20.23
2022-11-02T19:15:42.997Z,19.23
2022-11-02T19:18:10.110Z,20.45
2022-11-02T19:20:37.150Z,19.05
2022-11-02T19:23:04.093Z,21.00
2022-11-02T19:25:31.015Z,20.52
2022-11-02T19:27:58.070Z,20.17
2022-11-02T19:30:25.020Z,20.92
2022-11-02T19:32:51.964Z,19.73
2022-11-02T19:35:19.110Z,19.98
2022-11-02T19:37:45.996Z,20.10
2022-11-02T19:40:13.094Z,19.13
2022-11-02T19:42:41.465Z,18.83
2022-11-02T19:45:08.881Z,18.58
2022-11-02T19:47:36.015Z,19.52
2022-11-02T19:50:02.993Z,19.58
2022-11-02T19:52:30.018Z,18.83
2022-11-02T19:54:57.039Z,19.23
2022-11-02T19:57:24.141Z,18.50
2022-11-02T19:59:51.461Z,18.67
2022-11-02T20:02:18.406Z,18.38
2022-11-02T20:04:45.904Z,18.75
2022-11-02T20:07:12.860Z,20.17
2022-11-02T20:09:39.853Z,20.30
2022-11-02T20:12:07.659Z,20.30
2022-11-02T20:14:36.396Z,20.65
2022-11-02T20:17:30.201Z,20.48
2022-11-02T20:19:50.578Z,19.42
2022-11-02T20:22:18.597Z,20.17
2022-11-02T20:24:45.591Z,20.40
2022-11-02T20:27:14.017Z,20.30
2022-11-02T20:29:41.064Z,20.08
2022-11-02T20:32:10.283Z,20.90
2022-11-02T20:34:37.295Z,20.15
2022-11-02T20:37:05.185Z,20.38
2022-11-02T20:39:32.218Z,20.67
2022-11-02T20:41:59.113Z,21.00
2022-11-02T20:44:26.130Z,20.33
2022-11-02T20:46:53.645Z,20.50
2022-11-02T20:49:44.297Z,19.15
2022-11-02T20:52:10.108Z,18.52
2022-11-02T20:54:37.181Z,18.88
2022-11-02T20:57:04.224Z,18.60
2022-11-02T20:59:31.189Z,18.27
2022-11-02T21:01:58.267Z,18.65
2022-11-02T21:04:25.339Z,18.02
2022-11-02T21:06:52.486Z,19.38
2022-11-02T21:09:19.640Z,22.13
2022-11-02T21:12:05.311Z,18.73
2022-11-02T21:14:32.183Z,18.70
2022-11-02T21:16:59.106Z,18.33
2022-11-02T21:19:27.485Z,18.70
2022-11-02T21:21:59.345Z,19.30
2022-11-02T21:24:27.513Z,20.60
2022-11-02T21:26:54.502Z,21.02
2022-11-02T21:29:21.563Z,21.20
2022-11-02T21:31:48.832Z,20.15
2022-11-02T21:34:16.100Z,20.33
2022-11-02T21:36:43.074Z,20.02
2022-11-02T21:39:10.139Z,20.60
2022-11-02T21:41:38.978Z,19.05
2022-11-02T21:44:07.015Z,18.50
2022-11-02T21:46:34.140Z,19.30
2022-11-02T21:49:01.177Z,17.67
2022-11-02T21:51:28.635Z,17.10
2022-11-02T21:53:56.834Z,18.58
2022-11-02T21:56:27.790Z,18.35
2022-11-02T21:58:56.176Z,18.92
2022-11-02T22:01:42.940Z,19.73
2022-11-02T22:04:31.940Z,20.65
2022-11-02T22:07:01.528Z,21.48
2022-11-02T22:09:29.288Z,20.48
2022-11-02T22:12:15.875Z,21.77
2022-11-02T22:14:44.756Z,21.10
2022-11-02T22:17:21.974Z,20.92
2022-11-02T22:19:55.854Z,19.30
2022-11-02T22:22:23.929Z,20.73
2022-11-02T22:24:50.842Z,21.45
2022-11-02T22:27:17.810Z,21.45
2022-11-02T22:29:46.228Z,23.60
2022-11-02T22:32:14.622Z,24.08
2022-11-02T22:34:43.519Z,26.13
2022-11-02T22:37:28.945Z,24.20
2022-11-02T22:39:55.932Z,23.55
2022-11-02T22:42:22.860Z,22.83
2022-11-02T22:44:50.042Z,23.70
2022-11-02T22:47:17.043Z,23.02
2022-11-02T22:49:43.969Z,23.23
2022-11-02T22:52:10.928Z,22.85
2022-11-02T22:54:38.049Z,21.35
2022-11-02T22:57:05.057Z,23.30
2022-11-02T22:59:31.996Z,24.23
2022-11-02T23:01:59.140Z,24.15
2022-11-02T23:04:26.170Z,24.20
2022-11-02T23:06:53.165Z,22.73
2022-11-02T23:09:21.573Z,22.23
2022-11-02T23:11:48.572Z,21.25
2022-11-02T23:14:17.105Z,21.15
2022-11-02T23:16:49.131Z,21.45
2022-11-02T23:19:30.650Z,22.40
2022-11-02T23:22:20.653Z,21.48
2022-11-02T23:25:11.381Z,20.50
2022-11-02T23:28:06.003Z,20.40
2022-11-02T23:30:56.038Z,21.63
2022-11-02T23:33:25.185Z,21.58
2022-11-02T23:36:10.733Z,22.65
2022-11-02T23:39:00.936Z,22.38
2022-11-02T23:41:29.062Z,20.85
2022-11-02T23:44:11.634Z,21.35
2022-11-02T23:46:49.105Z,22.13
2022-11-02T23:49:18.171Z,21.92
2022-11-02T23:52:03.534Z,21.58
2022-11-02T23:54:48.936Z,22.10
2022-11-02T23:57:16.056Z,22.33
2022-11-02T23:59:42.936Z,23.17
